createdAt,value
2019-05-23T00:01:18.394Z,104.63
2019-05-23T00:04:09.010Z,76.00
2019-05-23T00:07:00.340Z,74.70
2019-05-23T00:09:50.614Z,93.97
2019-05-23T00:12:42.488Z,115.28
2019-05-23T00:15:30.023Z,94.55
2019-05-23T00:18:02.203Z,80.55
2019-05-23T00:20:34.560Z,91.25
2019-05-23T00:23:07.185Z,83.22
2019-05-23T00:25:38.434Z,75.17
2019-05-23T00:28:10.910Z,86.57
2019-05-23T00:30:52.849Z,78.72
2019-05-23T00:33:25.869Z,100.25
2019-05-23T00:35:57.613Z,70.95
2019-05-23T00:38:29.192Z,69.17
2019-05-23T00:41:00.501Z,69.53
2019-05-23T00:43:31.888Z,62.95
2019-05-23T00:46:05.179Z,86.02
2019-05-23T00:48:36.534Z,60.23
2019-05-23T00:51:07.670Z,85.30
2019-05-23T00:53:39.529Z,81.12
2019-05-23T00:56:11.856Z,88.17
2019-05-23T00:58:42.840Z,110.88
2019-05-23T01:01:14.553Z,90.60
2019-05-23T01:03:45.704Z,77.03
2019-05-23T01:06:18.288Z,86.02
2019-05-23T01:08:50.346Z,74.97
2019-05-23T01:11:21.821Z,71.67
2019-05-23T01:13:53.265Z,61.42
2019-05-23T01:16:25.456Z,70.03
2019-05-23T01:18:56.390Z,70.83
2019-05-23T01:21:43.770Z,76.45
2019-05-23T01:24:22.532Z,70.15
2019-05-23T01:26:54.968Z,79.70
2019-05-23T01:29:37.126Z,64.72
2019-05-23T01:32:02.821Z,65.05
2019-05-23T01:34:34.314Z,46.05
2019-05-23T01:37:06.384Z,53.85
2019-05-23T01:39:37.559Z,56.30
2019-05-23T01:42:09.640Z,47.43
2019-05-23T01:44:41.478Z,58.70
2019-05-23T01:47:13.205Z,46.77
2019-05-23T01:49:44.254Z,52.43
2019-05-23T01:52:16.742Z,51.68
2019-05-23T01:54:48.903Z,53.45
2019-05-23T01:57:20.183Z,55.35
2019-05-23T02:00:08.349Z,55.00
2019-05-23T02:02:25.244Z,52.62
2019-05-23T02:04:58.647Z,46.65
2019-05-23T02:07:30.925Z,54.00
2019-05-23T02:10:02.112Z,54.13
2019-05-23T02:12:35.594Z,57.88
2019-05-23T02:15:10.208Z,68.35
2019-05-23T02:17:41.382Z,72.22
2019-05-23T02:20:14.492Z,52.80
2019-05-23T02:22:45.644Z,51.08
2019-05-23T02:25:17.801Z,51.25
2019-05-23T02:27:49.112Z,47.65
2019-05-23T02:30:33.940Z,37.85
2019-05-23T02:32:54.929Z,49.10
2019-05-23T02:35:26.080Z,44.25
2019-05-23T02:38:06.104Z,39.48
2019-05-23T02:40:55.201Z,37.80
2019-05-23T02:43:28.248Z,40.48
2019-05-23T02:46:04.297Z,45.63
2019-05-23T02:48:39.543Z,45.90
2019-05-23T02:51:30.457Z,44.95
2019-05-23T02:54:04.241Z,44.73
2019-05-23T02:56:36.862Z,48.02
2019-05-23T02:59:28.651Z,53.05
2019-05-23T03:02:40.540Z,43.50
2019-05-23T03:05:14.085Z,43.52
2019-05-23T03:07:45.676Z,51.50
2019-05-23T03:10:19.151Z,54.80
2019-05-23T03:12:52.064Z,45.43
2019-05-23T03:15:25.061Z,50.43
2019-05-23T03:17:57.130Z,46.18
2019-05-23T03:20:29.924Z,47.62
2019-05-23T03:23:06.931Z,38.80
2019-05-23T03:25:42.645Z,58.50
2019-05-23T03:28:15.958Z,61.75
2019-05-23T03:30:48.603Z,55.08
2019-05-23T03:33:20.289Z,43.25
2019-05-23T03:35:53.051Z,44.05
2019-05-23T03:38:24.633Z,41.28
2019-05-23T03:40:55.977Z,41.80
2019-05-23T03:43:28.831Z,46.33
2019-05-23T03:46:07.639Z,42.10
2019-05-23T03:48:40.488Z,49.50
2019-05-23T03:51:12.439Z,38.30
2019-05-23T03:53:45.781Z,40.23
2019-05-23T03:56:16.758Z,42.60
2019-05-23T03:58:48.833Z,37.60
2019-05-23T04:01:21.606Z,42.38
2019-05-23T04:03:54.846Z,52.43
2019-05-23T04:06:27.129Z,45.45
2019-05-23T04:08:58.704Z,52.25
2019-05-23T04:11:30.550Z,44.90
2019-05-23T04:14:01.782Z,44.40
2019-05-23T04:16:32.721Z,41.80
2019-05-23T04:19:03.707Z,45.48
2019-05-23T04:21:34.656Z,44.50
2019-05-23T04:24:05.920Z,53.52
2019-05-23T04:26:36.871Z,44.45
2019-05-23T04:29:08.244Z,65.78
2019-05-23T04:31:39.191Z,93.17
2019-05-23T04:34:10.164Z,92.17
2019-05-23T04:36:41.308Z,96.08
2019-05-23T04:39:13.491Z,128.25
2019-05-23T04:41:44.833Z,94.17
2019-05-23T04:44:17.388Z,114.97
2019-05-23T04:46:48.441Z,61.20
2019-05-23T04:49:19.415Z,54.80
2019-05-23T04:51:50.451Z,99.28
2019-05-23T04:54:21.634Z,44.83
2019-05-23T04:56:53.890Z,50.70
2019-05-23T04:59:25.379Z,42.10
2019-05-23T05:01:57.981Z,39.48
2019-05-23T05:04:29.254Z,54.58
2019-05-23T05:07:00.915Z,56.58
2019-05-23T05:09:33.396Z,51.77
2019-05-23T05:12:05.230Z,51.70
2019-05-23T05:14:36.206Z,60.40
2019-05-23T05:17:07.861Z,60.63
2019-05-23T05:19:38.844Z,67.65
2019-05-23T05:22:09.998Z,73.83
2019-05-23T05:24:40.980Z,60.75
2019-05-23T05:27:12.841Z,68.37
2019-05-23T05:29:43.933Z,58.30
2019-05-23T05:32:15.995Z,69.47
2019-05-23T05:34:46.979Z,63.92
2019-05-23T05:37:18.004Z,71.60
2019-05-23T05:39:49.379Z,54.58
2019-05-23T05:42:20.765Z,123.60
2019-05-23T05:44:51.827Z,70.57
2019-05-23T05:47:22.871Z,57.45
2019-05-23T05:49:54.203Z,42.80
2019-05-23T05:52:25.554Z,45.12
2019-05-23T05:54:56.506Z,39.83
2019-05-23T05:57:27.492Z,42.83
2019-05-23T05:59:58.645Z,44.55
2019-05-23T06:02:30.127Z,41.15
2019-05-23T06:05:01.378Z,38.23
2019-05-23T06:07:36.669Z,33.95
2019-05-23T06:10:11.434Z,45.88
2019-05-23T06:12:42.627Z,34.48
2019-05-23T06:15:14.283Z,34.85
2019-05-23T06:17:45.273Z,31.75
2019-05-23T06:20:16.926Z,31.62
2019-05-23T06:22:48.300Z,31.95
2019-05-23T06:25:19.447Z,33.05
2019-05-23T06:27:50.509Z,65.62
2019-05-23T06:30:23.847Z,33.48
2019-05-23T06:32:55.762Z,37.98
2019-05-23T06:35:27.723Z,35.83
2019-05-23T06:37:58.818Z,50.00
2019-05-23T06:40:30.277Z,27.87
2019-05-23T06:43:02.354Z,23.92
2019-05-23T06:45:33.609Z,44.27
2019-05-23T06:48:04.960Z,35.40
2019-05-23T06:50:36.136Z,22.67
2019-05-23T06:53:07.630Z,25.12
2019-05-23T06:55:38.692Z,21.25
2019-05-23T06:58:09.998Z,46.00
2019-05-23T07:00:42.191Z,29.15
2019-05-23T07:03:13.612Z,28.42
2019-05-23T07:05:45.069Z,27.10
2019-05-23T07:08:16.318Z,33.92
2019-05-23T07:10:47.845Z,21.15
2019-05-23T07:13:19.231Z,23.38
2019-05-23T07:15:50.222Z,32.98
2019-05-23T07:18:21.184Z,29.23
2019-05-23T07:20:52.166Z,27.10
2019-05-23T07:23:23.321Z,30.60
2019-05-23T07:25:54.412Z,26.47
2019-05-23T07:28:25.358Z,14.40
2019-05-23T07:30:56.848Z,16.30
2019-05-23T07:33:27.791Z,14.33
2019-05-23T07:35:58.784Z,21.23
2019-05-23T07:38:29.737Z,12.27
2019-05-23T07:41:01.313Z,11.00
2019-05-23T07:43:32.526Z,12.97
2019-05-23T07:46:04.004Z,16.37
2019-05-23T07:48:35.492Z,24.70
2019-05-23T07:51:06.775Z,16.20
2019-05-23T07:53:43.960Z,18.33
2019-05-23T07:56:16.774Z,12.60
2019-05-23T07:58:48.056Z,14.63
2019-05-23T08:01:20.624Z,25.13
2019-05-23T08:03:52.972Z,15.50
2019-05-23T08:06:24.460Z,16.87
2019-05-23T08:08:56.537Z,18.27
2019-05-23T08:11:27.877Z,40.57
2019-05-23T08:13:59.158Z,13.03
2019-05-23T08:16:31.354Z,10.77
2019-05-23T08:19:03.081Z,28.70
2019-05-23T08:21:34.619Z,32.83
2019-05-23T08:24:06.850Z,25.43
2019-05-23T08:26:39.395Z,15.93
2019-05-23T08:29:25.265Z,28.77
2019-05-23T08:31:43.582Z,14.50
2019-05-23T08:34:15.266Z,27.27
2019-05-23T08:36:46.295Z,16.53
2019-05-23T08:39:17.311Z,13.90
2019-05-23T08:41:48.457Z,16.73
2019-05-23T08:44:19.763Z,10.03
2019-05-23T08:46:51.175Z,17.20
2019-05-23T08:49:22.562Z,12.60
2019-05-23T08:51:53.819Z,18.33
2019-05-23T08:54:25.914Z,25.73
2019-05-23T08:56:57.055Z,29.83
2019-05-23T08:59:28.235Z,12.50
2019-05-23T09:01:59.690Z,20.50
2019-05-23T09:04:31.679Z,24.37
2019-05-23T09:07:02.919Z,20.80
2019-05-23T09:09:34.703Z,21.50
2019-05-23T09:12:06.052Z,11.97
2019-05-23T09:14:37.530Z,13.70
2019-05-23T09:17:08.809Z,12.23
2019-05-23T09:19:40.192Z,12.83
2019-05-23T09:22:11.306Z,14.87
2019-05-23T09:24:42.502Z,16.50
2019-05-23T09:27:13.463Z,18.93
2019-05-23T09:29:45.559Z,18.03
2019-05-23T09:32:16.723Z,8.57
2019-05-23T09:34:47.735Z,13.40
2019-05-23T09:37:19.403Z,12.23
2019-05-23T09:39:50.450Z,19.43
2019-05-23T09:42:21.657Z,10.10
2019-05-23T09:44:52.807Z,12.03
2019-05-23T09:47:23.783Z,11.97
2019-05-23T09:49:54.871Z,18.70
2019-05-23T09:52:27.122Z,14.87
2019-05-23T09:54:58.248Z,15.73
2019-05-23T09:57:29.390Z,11.87
2019-05-23T10:00:00.366Z,11.73
2019-05-23T10:02:31.382Z,12.20
2019-05-23T10:05:02.518Z,9.67
2019-05-23T10:07:33.656Z,10.80
2019-05-23T10:10:05.591Z,10.13
2019-05-23T10:12:36.738Z,10.87
2019-05-23T10:15:29.290Z,9.20
2019-05-23T10:18:01.086Z,11.83
2019-05-23T10:20:35.796Z,14.00
2019-05-23T10:23:06.761Z,20.93
2019-05-23T10:25:37.800Z,7.77
2019-05-23T10:28:10.086Z,11.83
2019-05-23T10:30:41.270Z,9.20
2019-05-23T10:33:13.383Z,10.00
2019-05-23T10:35:59.169Z,7.50
2019-05-23T10:38:17.409Z,10.40
2019-05-23T10:40:48.684Z,9.37
2019-05-23T10:43:19.640Z,13.33
2019-05-23T10:45:50.798Z,8.40
2019-05-23T10:48:22.704Z,11.83
2019-05-23T10:50:54.808Z,14.53
2019-05-23T10:53:25.949Z,9.80
2019-05-23T10:55:58.010Z,12.97
2019-05-23T10:58:29.550Z,14.20
2019-05-23T11:01:00.533Z,8.73
2019-05-23T11:03:31.743Z,10.40
2019-05-23T11:06:15.486Z,10.37
2019-05-23T11:08:36.708Z,11.90
2019-05-23T11:11:08.349Z,10.00
2019-05-23T11:13:40.104Z,11.00
2019-05-23T11:16:11.303Z,18.80
2019-05-23T11:18:42.270Z,11.07
2019-05-23T11:21:13.207Z,9.20
2019-05-23T11:23:48.464Z,17.40
2019-05-23T11:26:19.507Z,12.10
2019-05-23T11:28:50.597Z,20.03
2019-05-23T11:31:22.559Z,12.63
2019-05-23T11:33:53.601Z,9.97
2019-05-23T11:36:35.429Z,15.83
2019-05-23T11:38:57.732Z,11.83
2019-05-23T11:41:30.484Z,14.10
2019-05-23T11:44:01.451Z,8.00
2019-05-23T11:46:34.162Z,8.40
2019-05-23T11:49:06.432Z,9.47
2019-05-23T11:51:38.274Z,10.93
2019-05-23T11:54:10.326Z,8.07
2019-05-23T11:56:41.776Z,7.63
2019-05-23T11:59:12.848Z,9.57
2019-05-23T12:02:01.800Z,8.20
2019-05-23T12:04:34.580Z,9.97
2019-05-23T12:07:13.312Z,9.27
2019-05-23T12:09:45.499Z,7.73
2019-05-23T12:12:16.580Z,9.17
2019-05-23T12:14:47.604Z,11.83
2019-05-23T12:17:19.753Z,7.43
2019-05-23T12:19:50.751Z,7.50
2019-05-23T12:22:21.859Z,12.20
2019-05-23T12:24:52.822Z,9.13
2019-05-23T12:27:23.955Z,9.00
2019-05-23T12:29:55.129Z,8.27
2019-05-23T12:32:26.409Z,18.53
2019-05-23T12:35:10.637Z,7.80
2019-05-23T12:37:30.509Z,7.50
2019-05-23T12:40:01.521Z,7.60
2019-05-23T12:42:32.560Z,8.93
2019-05-23T12:45:05.408Z,8.80
2019-05-23T12:47:37.959Z,10.63
2019-05-23T12:50:11.093Z,11.90
2019-05-23T12:52:42.061Z,9.03
2019-05-23T12:55:13.412Z,10.70
2019-05-23T12:57:44.587Z,8.00
2019-05-23T13:00:34.069Z,9.50
2019-05-23T13:03:06.970Z,6.93
2019-05-23T13:05:38.449Z,8.67
2019-05-23T13:08:09.818Z,6.83
2019-05-23T13:10:40.791Z,6.70
2019-05-23T13:13:11.836Z,9.07
2019-05-23T13:15:42.784Z,6.83
2019-05-23T13:18:13.853Z,8.37
2019-05-23T13:20:45.566Z,7.73
2019-05-23T13:23:20.919Z,14.30
2019-05-23T13:25:50.308Z,9.63
2019-05-23T13:28:21.478Z,7.83
2019-05-23T13:30:52.593Z,5.93
2019-05-23T13:33:23.615Z,11.53
2019-05-23T13:35:54.564Z,8.43
2019-05-23T13:38:25.679Z,10.83
2019-05-23T13:40:56.622Z,8.43
2019-05-23T13:43:27.593Z,5.77
2019-05-23T13:45:58.602Z,6.37
2019-05-23T13:48:29.594Z,5.50
2019-05-23T13:51:00.893Z,6.07
2019-05-23T13:53:32.740Z,9.87
2019-05-23T13:56:03.919Z,7.40
2019-05-23T13:58:35.287Z,5.90
2019-05-23T14:01:09.485Z,26.47
2019-05-23T14:03:41.099Z,7.73
2019-05-23T14:06:12.655Z,4.47
2019-05-23T14:08:43.697Z,9.03
2019-05-23T14:11:14.936Z,8.40
2019-05-23T14:13:46.281Z,6.93
2019-05-23T14:16:17.628Z,7.40
2019-05-23T14:18:48.865Z,5.33
2019-05-23T14:21:20.268Z,6.30
2019-05-23T14:23:51.362Z,12.30
2019-05-23T14:26:22.450Z,7.50
2019-05-23T14:28:53.385Z,5.83
2019-05-23T14:31:24.644Z,6.20
2019-05-23T14:33:57.156Z,8.33
2019-05-23T14:36:32.706Z,6.03
2019-05-23T14:39:07.051Z,11.80
2019-05-23T14:41:48.942Z,13.37
2019-05-23T14:44:19.897Z,5.77
2019-05-23T14:46:55.432Z,8.40
2019-05-23T14:49:28.131Z,5.37
2019-05-23T14:52:03.624Z,6.90
2019-05-23T14:54:38.979Z,6.60
2019-05-23T14:57:09.959Z,6.87
2019-05-23T14:59:41.195Z,8.00
2019-05-23T15:02:14.109Z,5.80
2019-05-23T15:04:45.053Z,7.20
2019-05-23T15:07:16.233Z,8.70
2019-05-23T15:09:48.276Z,5.67
2019-05-23T15:12:19.260Z,6.10
2019-05-23T15:14:50.581Z,11.53
2019-05-23T15:17:21.819Z,6.00
2019-05-23T15:19:52.802Z,19.00
2019-05-23T15:22:23.784Z,6.00
2019-05-23T15:24:55.445Z,19.90
2019-05-23T15:27:26.522Z,5.03
2019-05-23T15:29:57.475Z,7.70
2019-05-23T15:32:28.450Z,6.20
2019-05-23T15:34:59.402Z,10.37
2019-05-23T15:37:30.571Z,7.13
2019-05-23T15:40:01.715Z,5.17
2019-05-23T15:42:32.672Z,9.33
2019-05-23T15:45:04.210Z,5.33
2019-05-23T15:47:36.223Z,10.90
2019-05-23T15:50:11.826Z,5.03
2019-05-23T15:52:47.681Z,4.73
2019-05-23T15:55:27.735Z,8.30
2019-05-23T15:58:07.448Z,5.90
2019-05-23T16:00:58.457Z,5.10
2019-05-23T16:03:43.039Z,5.17
2019-05-23T16:06:28.405Z,16.30
2019-05-23T16:09:01.282Z,5.50
2019-05-23T16:11:34.166Z,7.30
2019-05-23T16:14:05.317Z,5.23
2019-05-23T16:16:36.726Z,11.70
2019-05-23T16:19:07.976Z,5.67
2019-05-23T16:21:40.578Z,5.27
2019-05-23T16:24:12.721Z,6.70
2019-05-23T16:26:44.206Z,4.47
2019-05-23T16:29:16.644Z,8.13
2019-05-23T16:31:48.029Z,16.20
2019-05-23T16:34:19.027Z,5.83
2019-05-23T16:36:50.007Z,8.00
2019-05-23T16:39:22.112Z,5.70
2019-05-23T16:41:53.090Z,5.33
2019-05-23T16:44:25.057Z,14.63
2019-05-23T16:46:57.124Z,5.20
2019-05-23T16:49:28.168Z,5.37
2019-05-23T16:51:59.240Z,5.90
2019-05-23T16:54:32.750Z,7.97
2019-05-23T16:57:21.638Z,9.40
2019-05-23T17:00:00.106Z,7.37
2019-05-23T17:02:39.513Z,7.97
2019-05-23T17:05:27.319Z,10.10
2019-05-23T17:08:05.769Z,15.93
2019-05-23T17:10:54.767Z,9.43
2019-05-23T17:13:28.924Z,4.77
2019-05-23T17:16:02.993Z,7.07
2019-05-23T17:18:45.911Z,6.13
2019-05-23T17:21:19.885Z,5.17
2019-05-23T17:23:52.469Z,6.87
2019-05-23T17:26:23.220Z,15.03
2019-05-23T17:28:55.847Z,9.47
2019-05-23T17:31:37.739Z,9.90
2019-05-23T17:34:08.926Z,9.07
2019-05-23T17:36:39.899Z,5.20
2019-05-23T17:39:12.581Z,7.03
2019-05-23T17:41:45.143Z,10.23
2019-05-23T17:44:16.222Z,7.40
2019-05-23T17:46:47.189Z,25.17
2019-05-23T17:49:18.362Z,11.43
2019-05-23T17:51:49.377Z,8.47
2019-05-23T17:54:22.101Z,5.60
2019-05-23T17:56:53.064Z,5.43
2019-05-23T17:59:24.112Z,5.37
2019-05-23T18:01:55.789Z,7.17
2019-05-23T18:04:26.838Z,4.33
2019-05-23T18:06:57.929Z,5.03
2019-05-23T18:09:30.250Z,3.97
2019-05-23T18:12:01.725Z,7.30
2019-05-23T18:14:32.971Z,4.50
2019-05-23T18:17:03.947Z,6.80
2019-05-23T18:19:35.710Z,10.33
2019-05-23T18:22:08.763Z,9.80
2019-05-23T18:24:39.994Z,15.33
2019-05-23T18:27:11.171Z,7.60
2019-05-23T18:29:42.546Z,7.20
2019-05-23T18:32:15.147Z,15.80
2019-05-23T18:34:46.098Z,4.13
2019-05-23T18:37:17.363Z,6.00
2019-05-23T18:39:48.309Z,11.40
2019-05-23T18:42:19.493Z,16.13
2019-05-23T18:44:50.833Z,5.13
2019-05-23T18:47:23.373Z,5.57
2019-05-23T18:49:54.628Z,4.93
2019-05-23T18:52:26.309Z,3.17
2019-05-23T18:54:57.260Z,6.47
2019-05-23T18:57:28.562Z,9.33
2019-05-23T19:00:02.451Z,6.03
2019-05-23T19:02:33.900Z,7.17
2019-05-23T19:05:08.698Z,5.60
2019-05-23T19:07:41.377Z,7.15
2019-05-23T19:10:13.940Z,8.30
2019-05-23T19:12:45.632Z,5.95
2019-05-23T19:15:16.584Z,6.92
2019-05-23T19:17:47.762Z,6.10
2019-05-23T19:20:20.503Z,7.60
2019-05-23T19:22:51.484Z,8.15
2019-05-23T19:25:24.123Z,14.28
2019-05-23T19:27:55.101Z,7.83
2019-05-23T19:30:26.314Z,9.50
2019-05-23T19:32:57.687Z,9.40
2019-05-23T19:35:28.627Z,8.98
2019-05-23T19:37:59.841Z,8.45
2019-05-23T19:40:30.899Z,8.55
2019-05-23T19:43:02.235Z,8.85
2019-05-23T19:45:33.441Z,9.73
2019-05-23T19:48:05.003Z,7.40
2019-05-23T19:50:37.650Z,5.65
2019-05-23T19:53:08.663Z,5.05
2019-05-23T19:55:40.364Z,9.53
2019-05-23T19:58:11.782Z,7.25
2019-05-23T20:00:44.362Z,14.80
2019-05-23T20:03:15.691Z,4.90
2019-05-23T20:05:52.498Z,6.60
2019-05-23T20:08:23.590Z,17.90
2019-05-23T20:10:54.621Z,13.18
2019-05-23T20:13:26.840Z,14.23
2019-05-23T20:15:57.843Z,17.10
2019-05-23T20:18:28.921Z,25.65
2019-05-23T20:21:00.478Z,16.60
2019-05-23T20:23:31.483Z,16.90
2019-05-23T20:26:03.307Z,13.70
2019-05-23T20:28:34.854Z,12.45
2019-05-23T20:31:06.485Z,11.48
2019-05-23T20:33:37.533Z,23.55
2019-05-23T20:36:12.493Z,11.08
2019-05-23T20:38:43.699Z,7.42
2019-05-23T20:41:16.862Z,9.35
2019-05-23T20:43:47.870Z,7.42
2019-05-23T20:46:19.505Z,13.03
2019-05-23T20:48:50.507Z,14.23
2019-05-23T20:51:21.502Z,11.20
2019-05-23T20:53:52.499Z,11.93
2019-05-23T20:56:23.535Z,5.55
2019-05-23T20:58:54.494Z,11.25
2019-05-23T21:01:27.220Z,8.18
2019-05-23T21:03:58.183Z,12.07
2019-05-23T21:06:30.349Z,9.45
2019-05-23T21:09:01.303Z,7.92
2019-05-23T21:11:32.960Z,9.28
2019-05-23T21:14:03.912Z,12.07
2019-05-23T21:16:35.061Z,7.20
2019-05-23T21:19:06.277Z,11.73
2019-05-23T21:21:37.657Z,12.28
2019-05-23T21:24:09.037Z,9.58
2019-05-23T21:26:40.235Z,6.70
2019-05-23T21:29:11.176Z,13.25
2019-05-23T21:31:42.206Z,12.00
2019-05-23T21:34:13.426Z,17.52
2019-05-23T21:36:44.389Z,8.43
2019-05-23T21:39:15.733Z,18.82
2019-05-23T21:41:46.706Z,11.28
2019-05-23T21:44:17.632Z,10.43
2019-05-23T21:46:48.804Z,19.00
2019-05-23T21:49:19.747Z,13.55
2019-05-23T21:51:51.868Z,8.83
2019-05-23T21:54:23.225Z,8.30
2019-05-23T21:56:55.600Z,7.05
2019-05-23T21:59:26.534Z,10.93
2019-05-23T22:01:59.272Z,6.90
2019-05-23T22:04:31.775Z,9.18
2019-05-23T22:07:03.145Z,9.38
2019-05-23T22:09:34.606Z,11.35
2019-05-23T22:12:06.962Z,8.20
2019-05-23T22:14:38.904Z,11.22
2019-05-23T22:17:09.871Z,14.35
2019-05-23T22:19:41.137Z,7.83
2019-05-23T22:22:12.279Z,12.15
2019-05-23T22:24:43.458Z,15.63
2019-05-23T22:27:14.535Z,6.37
2019-05-23T22:29:45.472Z,6.80
2019-05-23T22:32:18.103Z,8.98
2019-05-23T22:34:51.828Z,9.88
2019-05-23T22:37:23.104Z,11.78
2019-05-23T22:39:54.049Z,9.30
2019-05-23T22:42:25.416Z,8.78
2019-05-23T22:44:56.353Z,8.28
2019-05-23T22:47:27.823Z,7.90
2019-05-23T22:49:59.026Z,8.73
2019-05-23T22:52:30.159Z,8.28
2019-05-23T22:55:01.145Z,7.60
2019-05-23T22:57:32.110Z,8.98
2019-05-23T23:00:03.150Z,8.70
2019-05-23T23:02:35.391Z,6.42
2019-05-23T23:05:06.925Z,5.95
2019-05-23T23:07:38.372Z,7.95
2019-05-23T23:10:09.605Z,7.53
2019-05-23T23:12:40.582Z,9.93
2019-05-23T23:15:11.907Z,5.12
2019-05-23T23:17:42.875Z,9.18
2019-05-23T23:20:14.235Z,9.73
2019-05-23T23:22:45.211Z,14.75
2019-05-23T23:25:17.784Z,8.80
2019-05-23T23:27:48.753Z,8.68
2019-05-23T23:30:21.967Z,7.00
2019-05-23T23:32:53.010Z,16.52
2019-05-23T23:35:24.050Z,26.77
2019-05-23T23:37:55.020Z,7.45
2019-05-23T23:40:26.231Z,6.55
2019-05-23T23:42:57.202Z,7.55
2019-05-23T23:45:46.300Z,19.40
2019-05-23T23:48:34.876Z,10.90
2019-05-23T23:51:23.709Z,10.32
2019-05-23T23:54:12.802Z,8.25
2019-05-23T23:57:02.720Z,15.93
2019-05-23T23:59:32.777Z,8.35
